createdAt,value
2022-12-23T00:01:38.519Z,97065.75
2022-12-23T00:04:05.230Z,97067.28
2022-12-23T00:06:31.739Z,97064.97
2022-12-23T00:08:58.846Z,97069.97
2022-12-23T00:11:25.841Z,97059.94
2022-12-23T00:14:14.818Z,97067.38
2022-12-23T00:16:44.946Z,97072.13
2022-12-23T00:19:11.458Z,97068.47
2022-12-23T00:21:38.003Z,97066.81
2022-12-23T00:24:04.769Z,97068.75
2022-12-23T00:26:31.249Z,97058.28
2022-12-23T00:28:58.590Z,97048.28
2022-12-23T00:31:25.164Z,97053.72
2022-12-23T00:33:53.295Z,97057.00
2022-12-23T00:36:30.905Z,97058.22
2022-12-23T00:39:16.681Z,97057.63
2022-12-23T00:42:01.753Z,97069.84
2022-12-23T00:44:28.286Z,97066.28
2022-12-23T00:46:54.748Z,97061.47
2022-12-23T00:49:39.767Z,97064.38
2022-12-23T00:52:07.233Z,97061.34
2022-12-23T00:54:33.712Z,97062.84
2022-12-23T00:57:00.256Z,97067.84
2022-12-23T00:59:26.722Z,97071.72
2022-12-23T01:02:11.675Z,97059.06
2022-12-23T01:04:56.942Z,97070.63
2022-12-23T01:07:23.599Z,97065.09
2022-12-23T01:09:50.176Z,97069.59
2022-12-23T01:12:16.667Z,97069.53
2022-12-23T01:14:43.137Z,97070.78
2022-12-23T01:17:09.741Z,97077.09
2022-12-23T01:19:36.350Z,97077.03
2022-12-23T01:22:02.911Z,97086.31
2022-12-23T01:24:30.283Z,97080.69
2022-12-23T01:26:56.825Z,97080.22
2022-12-23T01:29:23.306Z,97089.97
2022-12-23T01:31:49.839Z,97088.44
2022-12-23T01:34:16.352Z,97089.59
2022-12-23T01:36:43.441Z,97086.31
2022-12-23T01:39:09.916Z,97077.47
2022-12-23T01:41:54.965Z,97089.81
2022-12-23T01:44:54.275Z,97091.28
2022-12-23T01:47:40.019Z,97077.13
2022-12-23T01:50:29.482Z,97082.97
2022-12-23T01:53:07.638Z,97088.88
2022-12-23T01:55:38.302Z,97098.03
2022-12-23T01:58:12.691Z,97096.06
2022-12-23T02:00:57.944Z,97095.28
2022-12-23T02:03:42.617Z,97100.00
2022-12-23T02:06:44.248Z,97095.69
2022-12-23T02:09:18.884Z,97101.16
2022-12-23T02:12:21.373Z,97111.91
2022-12-23T02:15:12.120Z,97101.16
2022-12-23T02:17:58.749Z,97108.66
2022-12-23T02:20:59.240Z,97106.69
2022-12-23T02:24:10.268Z,97121.66
2022-12-23T02:27:09.156Z,97110.00
2022-12-23T02:29:51.099Z,97110.69
2022-12-23T02:32:26.114Z,97113.22
2022-12-23T02:34:56.748Z,97118.94
2022-12-23T02:37:30.556Z,97114.81
2022-12-23T02:40:00.059Z,97119.91
2022-12-23T02:42:42.575Z,97114.38
2022-12-23T02:45:22.311Z,97123.25
2022-12-23T02:47:56.595Z,97115.25
2022-12-23T02:50:33.866Z,97121.06
2022-12-23T02:53:04.295Z,97120.03
2022-12-23T02:55:32.863Z,97115.69
2022-12-23T02:58:00.715Z,97112.03
2022-12-23T03:00:27.179Z,97114.72
2022-12-23T03:02:53.889Z,97112.66
2022-12-23T03:05:29.200Z,97117.09
2022-12-23T03:07:59.329Z,97123.81
2022-12-23T03:10:31.703Z,97119.47
2022-12-23T03:13:12.123Z,97117.78
2022-12-23T03:15:46.975Z,97124.09
2022-12-23T03:18:40.856Z,97126.72
2022-12-23T03:21:10.731Z,97126.66
2022-12-23T03:23:41.632Z,97118.66
2022-12-23T03:26:14.556Z,97125.06
2022-12-23T03:28:49.443Z,97138.66
2022-12-23T03:31:18.026Z,97143.59
2022-12-23T03:33:46.470Z,97137.00
2022-12-23T03:36:15.699Z,97126.94
2022-12-23T03:38:42.788Z,97134.50
2022-12-23T03:41:11.325Z,97137.09
2022-12-23T03:43:46.595Z,97134.78
2022-12-23T03:46:19.347Z,97138.59
2022-12-23T03:48:48.738Z,97138.44
2022-12-23T03:51:17.450Z,97144.91
2022-12-23T03:53:58.297Z,97149.50
2022-12-23T03:56:39.031Z,97149.72
2022-12-23T03:59:14.812Z,97147.81
2022-12-23T04:02:00.149Z,97152.78
2022-12-23T04:04:50.822Z,97153.06
2022-12-23T04:07:23.549Z,97159.09
2022-12-23T04:09:51.236Z,97155.19
2022-12-23T04:12:17.727Z,97157.00
2022-12-23T04:14:47.793Z,97162.22
2022-12-23T04:17:14.332Z,97167.91
2022-12-23T04:19:41.877Z,97170.53
2022-12-23T04:22:08.359Z,97170.16
2022-12-23T04:24:34.838Z,97174.28
2022-12-23T04:27:01.291Z,97180.69
2022-12-23T04:29:27.788Z,97173.56
2022-12-23T04:31:54.308Z,97177.28
2022-12-23T04:34:20.829Z,97172.69
2022-12-23T04:36:47.341Z,97185.41
2022-12-23T04:39:13.889Z,97175.44
2022-12-23T04:41:40.364Z,97187.00
2022-12-23T04:44:07.544Z,97180.25
2022-12-23T04:46:34.079Z,97182.28
2022-12-23T04:49:00.574Z,97176.81
2022-12-23T04:51:27.025Z,97181.91
2022-12-23T04:53:53.749Z,97173.91
2022-12-23T04:56:20.215Z,97178.56
2022-12-23T04:58:46.681Z,97175.94
2022-12-23T05:01:13.250Z,97180.69
2022-12-23T05:03:39.756Z,97176.25
2022-12-23T05:06:06.346Z,97180.25
2022-12-23T05:08:32.973Z,97183.38
2022-12-23T05:10:59.473Z,97185.84
2022-12-23T05:13:26.007Z,97191.81
2022-12-23T05:15:53.226Z,97191.00
2022-12-23T05:18:19.953Z,97202.38
2022-12-23T05:20:46.430Z,97192.19
2022-12-23T05:23:13.071Z,97204.69
2022-12-23T05:25:39.935Z,97207.69
2022-12-23T05:28:06.439Z,97210.44
2022-12-23T05:30:32.918Z,97210.38
2022-12-23T05:32:59.415Z,97216.47
2022-12-23T05:35:26.338Z,97215.63
2022-12-23T05:37:52.824Z,97211.25
2022-12-23T05:40:23.564Z,97216.44
2022-12-23T05:42:51.417Z,97221.50
2022-12-23T05:45:17.907Z,97221.34
2022-12-23T05:47:44.438Z,97224.78
2022-12-23T05:50:11.147Z,97222.66
2022-12-23T05:52:37.599Z,97220.69
2022-12-23T05:55:04.536Z,97228.56
2022-12-23T05:57:32.130Z,97228.91
2022-12-23T05:59:58.896Z,97229.00
2022-12-23T06:02:25.520Z,97226.88
2022-12-23T06:04:52.073Z,97229.47
2022-12-23T06:07:18.542Z,97226.69
2022-12-23T06:09:45.062Z,97228.50
2022-12-23T06:12:11.525Z,97225.94
2022-12-23T06:14:38.003Z,97220.00
2022-12-23T06:17:04.556Z,97222.41
2022-12-23T06:19:31.125Z,97222.16
2022-12-23T06:21:57.610Z,97221.50
2022-12-23T06:24:24.117Z,97227.50
2022-12-23T06:26:55.090Z,97232.34
2022-12-23T06:29:23.604Z,97236.72
2022-12-23T06:31:50.393Z,97229.16
2022-12-23T06:34:17.077Z,97226.59
2022-12-23T06:36:43.543Z,97230.03
2022-12-23T06:39:10.397Z,97233.03
2022-12-23T06:41:36.849Z,97243.06
2022-12-23T06:44:03.449Z,97252.81
2022-12-23T06:46:30.029Z,97244.34
2022-12-23T06:48:56.539Z,97251.75
2022-12-23T06:51:23.003Z,97264.34
2022-12-23T06:53:49.709Z,97262.81
2022-12-23T06:56:16.169Z,97263.09
2022-12-23T06:58:42.655Z,97279.47
2022-12-23T07:01:10.206Z,97277.88
2022-12-23T07:03:36.946Z,97282.97
2022-12-23T07:06:06.215Z,97289.31
2022-12-23T07:08:32.685Z,97297.03
2022-12-23T07:11:03.324Z,97292.50
2022-12-23T07:13:30.369Z,97296.94
2022-12-23T07:15:56.921Z,97306.03
2022-12-23T07:18:23.422Z,97309.16
2022-12-23T07:20:50.423Z,97304.25
2022-12-23T07:23:16.976Z,97312.63
2022-12-23T07:25:43.470Z,97313.44
2022-12-23T07:28:09.932Z,97313.28
2022-12-23T07:30:36.410Z,97309.34
2022-12-23T07:33:02.904Z,97314.50
2022-12-23T07:35:29.400Z,97322.00
2022-12-23T07:37:56.010Z,97316.97
2022-12-23T07:40:23.071Z,97315.38
2022-12-23T07:42:50.399Z,97319.72
2022-12-23T07:45:16.945Z,97315.94
2022-12-23T07:47:43.398Z,97318.59
2022-12-23T07:50:10.033Z,97311.03
2022-12-23T07:52:36.603Z,97325.19
2022-12-23T07:55:03.122Z,97323.59
2022-12-23T07:57:29.595Z,97327.34
2022-12-23T07:59:56.072Z,97330.72
2022-12-23T08:02:25.104Z,97324.31
2022-12-23T08:04:52.143Z,97317.28
2022-12-23T08:07:18.622Z,97322.78
2022-12-23T08:09:45.087Z,97315.22
2022-12-23T08:12:12.034Z,97329.03
2022-12-23T08:14:38.494Z,97335.22
2022-12-23T08:17:05.092Z,97341.41
2022-12-23T08:19:31.647Z,97345.00
2022-12-23T08:21:58.135Z,97341.78
2022-12-23T08:24:24.603Z,97348.22
2022-12-23T08:26:51.140Z,97359.63
2022-12-23T08:29:17.666Z,97360.31
2022-12-23T08:31:44.130Z,97370.66
2022-12-23T08:34:10.760Z,97377.50
2022-12-23T08:36:37.256Z,97375.38
2022-12-23T08:39:05.645Z,97369.56
2022-12-23T08:41:33.927Z,97372.44
2022-12-23T08:44:00.398Z,97368.16
2022-12-23T08:46:27.132Z,97369.75
2022-12-23T08:48:53.717Z,97375.03
2022-12-23T08:51:20.932Z,97379.66
2022-12-23T08:53:47.456Z,97386.69
2022-12-23T08:56:16.185Z,97382.56
2022-12-23T08:58:45.390Z,97376.19
2022-12-23T09:01:12.823Z,97377.34
2022-12-23T09:03:39.466Z,97378.59
2022-12-23T09:06:07.067Z,97385.16
2022-12-23T09:08:33.582Z,97387.03
2022-12-23T09:11:00.086Z,97376.69
2022-12-23T09:13:34.550Z,97383.22
2022-12-23T09:16:01.617Z,97370.00
2022-12-23T09:18:28.151Z,97373.06
2022-12-23T09:20:59.023Z,97376.72
2022-12-23T09:23:25.544Z,97380.00
2022-12-23T09:25:56.300Z,97376.88
2022-12-23T09:28:22.996Z,97369.41
2022-12-23T09:30:49.506Z,97379.72
2022-12-23T09:33:17.077Z,97375.47
2022-12-23T09:35:43.661Z,97370.75
2022-12-23T09:38:10.205Z,97371.53
2022-12-23T09:40:37.340Z,97377.44
2022-12-23T09:43:39.889Z,97375.03
2022-12-23T09:46:19.001Z,97368.84
2022-12-23T09:49:12.355Z,97376.97
2022-12-23T09:51:38.833Z,97380.78
2022-12-23T09:54:16.657Z,97389.72
2022-12-23T09:56:51.862Z,97387.03
2022-12-23T09:59:43.229Z,97396.91
2022-12-23T10:02:30.313Z,97392.19
2022-12-23T10:04:59.751Z,97386.59
2022-12-23T10:07:45.837Z,97371.06
2022-12-23T10:10:16.629Z,97374.06
2022-12-23T10:12:45.056Z,97361.72
2022-12-23T10:15:34.541Z,97361.88
2022-12-23T10:18:35.344Z,97360.47
2022-12-23T10:21:04.435Z,97350.13
2022-12-23T10:23:37.232Z,97348.97
2022-12-23T10:26:07.700Z,97344.97
2022-12-23T10:28:34.156Z,97340.22
2022-12-23T10:31:31.110Z,97335.69
2022-12-23T10:34:05.287Z,97333.81
2022-12-23T10:36:44.714Z,97333.63
2022-12-23T10:39:17.552Z,97332.63
2022-12-23T10:41:53.056Z,97329.19
2022-12-23T10:44:36.199Z,97322.06
2022-12-23T10:47:35.335Z,97323.28
2022-12-23T10:50:29.276Z,97321.78
2022-12-23T10:52:56.374Z,97338.53
2022-12-23T10:55:29.794Z,97338.03
2022-12-23T10:58:18.146Z,97337.28
2022-12-23T11:00:59.108Z,97331.41
2022-12-23T11:03:29.528Z,97330.06
2022-12-23T11:05:56.193Z,97312.78
2022-12-23T11:08:22.741Z,97314.75
2022-12-23T11:10:49.283Z,97306.94
2022-12-23T11:13:31.956Z,97302.56
2022-12-23T11:16:24.653Z,97294.66
2022-12-23T11:18:58.428Z,97300.84
2022-12-23T11:21:25.264Z,97303.94
2022-12-23T11:24:08.105Z,97295.84
2022-12-23T11:26:34.600Z,97287.28
2022-12-23T11:29:06.934Z,97292.81
2022-12-23T11:31:35.415Z,97292.47
2022-12-23T11:34:06.934Z,97288.03
2022-12-23T11:36:33.278Z,97285.72
2022-12-23T11:39:02.596Z,97283.91
2022-12-23T11:41:30.185Z,97283.09
2022-12-23T11:43:59.078Z,97273.28
2022-12-23T11:46:29.977Z,97271.75
2022-12-23T11:49:06.418Z,97266.88
2022-12-23T11:51:32.872Z,97262.50
2022-12-23T11:54:02.572Z,97270.66
2022-12-23T11:56:34.451Z,97257.94
2022-12-23T11:59:07.556Z,97257.16
2022-12-23T12:01:34.124Z,97251.22
2022-12-23T12:04:02.045Z,97242.00
2022-12-23T12:06:28.625Z,97242.09
2022-12-23T12:08:56.209Z,97233.78
2022-12-23T12:11:28.175Z,97232.69
2022-12-23T12:13:59.842Z,97220.56
2022-12-23T12:16:52.170Z,97221.88
2022-12-23T12:19:28.633Z,97219.91
2022-12-23T12:21:57.316Z,97215.97
2022-12-23T12:24:36.882Z,97206.09
2022-12-23T12:27:05.613Z,97206.88
2022-12-23T12:29:43.343Z,97193.06
2022-12-23T12:32:22.773Z,97185.66
2022-12-23T12:34:55.587Z,97186.38
2022-12-23T12:37:27.687Z,97177.28
2022-12-23T12:40:00.956Z,97180.41
2022-12-23T12:42:37.824Z,97184.34
2022-12-23T12:45:23.440Z,97179.53
2022-12-23T12:48:18.475Z,97176.69
2022-12-23T12:50:55.551Z,97170.38
2022-12-23T12:53:22.184Z,97175.09
2022-12-23T12:55:53.147Z,97178.22
2022-12-23T12:58:20.690Z,97169.19
2022-12-23T13:01:10.178Z,97174.88
2022-12-23T13:04:15.687Z,97174.44
2022-12-23T13:06:52.346Z,97170.81
2022-12-23T13:09:53.399Z,97164.63
2022-12-23T13:12:38.024Z,97164.63
2022-12-23T13:15:07.889Z,97161.88
2022-12-23T13:17:42.570Z,97160.56
2022-12-23T13:20:17.022Z,97164.84
2022-12-23T13:22:44.190Z,97148.72
2022-12-23T13:25:25.200Z,97147.81
2022-12-23T13:28:01.217Z,97148.56
2022-12-23T13:30:29.961Z,97143.78
2022-12-23T13:33:24.361Z,97147.19
2022-12-23T13:36:12.626Z,97138.38
2022-12-23T13:38:43.561Z,97133.59
2022-12-23T13:41:22.047Z,97130.31
2022-12-23T13:43:51.333Z,97133.38
2022-12-23T13:46:30.012Z,97127.13
2022-12-23T13:49:07.568Z,97132.84
2022-12-23T13:51:42.941Z,97139.69
2022-12-23T13:54:14.979Z,97138.47
2022-12-23T13:56:47.350Z,97146.66
2022-12-23T13:59:15.285Z,97144.66
2022-12-23T14:01:41.681Z,97145.28
2022-12-23T14:04:33.982Z,97140.78
2022-12-23T14:07:17.333Z,97122.19
2022-12-23T14:09:43.788Z,97126.03
2022-12-23T14:12:12.446Z,97118.13
2022-12-23T14:14:40.747Z,97116.44
2022-12-23T14:17:12.319Z,97115.91
2022-12-23T14:19:58.500Z,97116.66
2022-12-23T14:22:34.337Z,97119.03
2022-12-23T14:25:29.202Z,97118.63
2022-12-23T14:28:17.548Z,97117.81
2022-12-23T14:30:47.024Z,97113.38
2022-12-23T14:33:28.326Z,97111.78
2022-12-23T14:35:55.813Z,97108.22
2022-12-23T14:38:24.435Z,97106.97
2022-12-23T14:40:53.516Z,97105.38
2022-12-23T14:43:23.149Z,97096.22
2022-12-23T14:46:01.135Z,97094.69
2022-12-23T14:48:33.811Z,97089.09
2022-12-23T14:51:01.576Z,97098.78
2022-12-23T14:53:31.695Z,97095.75
2022-12-23T14:56:11.497Z,97091.59
2022-12-23T14:58:47.018Z,97086.94
2022-12-23T15:01:27.551Z,97081.50
2022-12-23T15:04:00.928Z,97078.78
2022-12-23T15:06:38.052Z,97076.78
2022-12-23T15:14:09.188Z,97061.66
2022-12-23T15:16:37.583Z,97059.25
2022-12-23T15:19:21.646Z,97056.56
2022-12-23T15:21:56.694Z,97057.00
2022-12-23T15:24:29.772Z,97062.09
2022-12-23T15:27:26.566Z,97053.72
2022-12-23T15:29:51.582Z,97053.50
2022-12-23T15:32:19.493Z,97043.91
2022-12-23T15:34:47.478Z,97031.63
2022-12-23T15:37:19.456Z,97014.78
2022-12-23T15:39:46.899Z,97027.63
2022-12-23T15:42:27.144Z,97024.78
2022-12-23T15:44:53.628Z,97027.63
2022-12-23T15:47:38.702Z,97031.56
2022-12-23T15:50:12.633Z,97034.75
2022-12-23T15:52:39.878Z,97036.78
2022-12-23T15:55:14.862Z,97039.63
2022-12-23T15:57:49.972Z,97029.22
2022-12-23T16:00:24.151Z,97018.13
2022-12-23T16:03:01.121Z,97009.19
2022-12-23T16:05:33.371Z,97000.03
2022-12-23T16:08:23.025Z,96997.19
2022-12-23T16:11:18.758Z,96996.34
2022-12-23T16:13:59.251Z,96999.09
2022-12-23T16:16:28.931Z,97001.78
2022-12-23T16:18:55.461Z,97006.06
2022-12-23T16:21:21.952Z,97012.31
2022-12-23T16:23:50.268Z,97018.56
2022-12-23T16:26:16.749Z,97018.13
2022-12-23T16:28:46.572Z,97014.19
2022-12-23T16:31:15.583Z,97008.31
2022-12-23T16:33:49.294Z,96999.09
2022-12-23T16:36:23.740Z,96995.47
2022-12-23T16:38:51.355Z,96999.91
2022-12-23T16:41:19.127Z,96995.91
2022-12-23T16:43:52.072Z,96989.88
2022-12-23T16:46:20.144Z,97001.28
2022-12-23T16:48:50.602Z,96992.13
2022-12-23T16:51:20.088Z,96979.13
2022-12-23T16:53:50.153Z,96976.78
2022-12-23T16:56:18.161Z,96970.19
2022-12-23T16:58:44.634Z,96961.97
2022-12-23T17:01:20.518Z,96953.69
2022-12-23T17:03:47.070Z,96950.78
2022-12-23T17:06:14.056Z,96938.16
2022-12-23T17:08:40.926Z,96949.19
2022-12-23T17:11:27.545Z,96925.22
2022-12-23T17:13:59.599Z,96932.63
2022-12-23T17:16:30.096Z,96925.22
2022-12-23T17:18:56.721Z,96914.97
2022-12-23T17:21:24.529Z,96905.91
2022-12-23T17:23:52.036Z,96904.31
2022-12-23T17:26:19.249Z,96899.28
2022-12-23T17:28:45.820Z,96893.69
2022-12-23T17:31:15.556Z,96907.78
2022-12-23T17:33:44.659Z,96910.56
2022-12-23T17:36:11.390Z,96899.06
2022-12-23T17:38:37.931Z,96885.47
2022-12-23T17:41:04.455Z,96878.72
2022-12-23T17:43:30.946Z,96891.72
2022-12-23T17:45:57.528Z,96876.34
2022-12-23T17:48:29.609Z,96873.94
2022-12-23T17:50:58.032Z,96867.91
2022-12-23T17:53:24.524Z,96870.81
2022-12-23T17:55:51.003Z,96863.75
2022-12-23T17:58:17.515Z,96849.16
2022-12-23T18:00:44.107Z,96848.47
2022-12-23T18:03:21.406Z,96842.34
2022-12-23T18:05:47.886Z,96853.75
2022-12-23T18:08:14.369Z,96840.81
2022-12-23T18:10:40.905Z,96825.47
2022-12-23T18:13:09.497Z,96835.22
2022-12-23T18:15:37.316Z,96829.72
2022-12-23T18:18:30.171Z,96846.16
2022-12-23T18:21:01.995Z,96829.59
2022-12-23T18:23:29.892Z,96837.91
2022-12-23T18:25:56.441Z,96835.13
2022-12-23T18:28:23.305Z,96819.22
2022-12-23T18:30:50.317Z,96830.63
2022-12-23T18:33:17.598Z,96833.53
2022-12-23T18:35:48.261Z,96849.66
2022-12-23T18:38:15.201Z,96846.78
2022-12-23T18:40:41.762Z,96847.78
2022-12-23T18:43:17.044Z,96837.91
2022-12-23T18:45:46.553Z,96818.59
2022-12-23T18:48:15.676Z,96826.72
2022-12-23T18:50:42.458Z,96832.53
2022-12-23T18:53:21.319Z,96815.91
2022-12-23T18:55:50.525Z,96830.56
2022-12-23T18:58:19.807Z,96828.63
2022-12-23T19:00:46.414Z,96829.22
2022-12-23T19:03:25.805Z,96836.03
2022-12-23T19:05:52.645Z,96832.72
2022-12-23T19:08:25.861Z,96834.94
2022-12-23T19:10:53.470Z,96841.41
2022-12-23T19:13:19.975Z,96852.09
2022-12-23T19:15:46.506Z,96856.75
2022-12-23T19:18:17.286Z,96856.72
2022-12-23T19:20:44.690Z,96871.19
2022-12-23T19:23:11.449Z,96862.91
2022-12-23T19:25:40.878Z,96860.44
2022-12-23T19:28:07.425Z,96868.06
2022-12-23T19:30:34.543Z,96857.94
2022-12-23T19:33:01.090Z,96869.09
2022-12-23T19:35:27.596Z,96871.56
2022-12-23T19:37:54.059Z,96870.50
2022-12-23T19:40:20.578Z,96867.72
2022-12-23T19:42:47.143Z,96868.66
2022-12-23T19:45:13.666Z,96881.50
2022-12-23T19:47:40.181Z,96894.75
2022-12-23T19:50:07.169Z,96899.09
2022-12-23T19:52:33.748Z,96896.78
2022-12-23T19:55:00.204Z,96900.75
2022-12-23T19:57:26.701Z,96897.94
2022-12-23T19:59:53.795Z,96894.88
2022-12-23T20:02:20.315Z,96900.00
2022-12-23T20:04:46.946Z,96910.16
2022-12-23T20:07:13.449Z,96896.88
2022-12-23T20:09:39.949Z,96905.28
2022-12-23T20:12:06.476Z,96913.31
2022-12-23T20:14:34.395Z,96911.69
2022-12-23T20:17:01.070Z,96918.47
2022-12-23T20:19:27.631Z,96917.00
2022-12-23T20:21:54.099Z,96937.72
2022-12-23T20:24:20.521Z,96942.06
2022-12-23T20:26:47.434Z,96932.56
2022-12-23T20:29:14.200Z,96920.88
2022-12-23T20:31:40.791Z,96924.81
2022-12-23T20:34:08.156Z,96928.94
2022-12-23T20:36:35.488Z,96934.06
2022-12-23T20:39:03.339Z,96947.53
2022-12-23T20:41:30.188Z,96940.16
2022-12-23T20:44:32.610Z,96942.38
2022-12-23T20:46:43.193Z,96944.53
2022-12-23T20:49:09.685Z,96957.88
2022-12-23T20:51:36.187Z,96951.09
2022-12-23T20:54:02.643Z,96953.00
2022-12-23T20:56:30.289Z,96961.44
2022-12-23T20:58:59.023Z,96965.47
2022-12-23T21:01:28.256Z,96955.63
2022-12-23T21:03:55.010Z,96956.69
2022-12-23T21:06:22.575Z,96965.31
2022-12-23T21:08:49.041Z,96966.03
2022-12-23T21:11:15.774Z,96964.69
2022-12-23T21:13:43.852Z,96963.09
2022-12-23T21:16:11.355Z,96958.78
2022-12-23T21:18:45.740Z,96966.66
2022-12-23T21:21:12.304Z,96961.84
2022-12-23T21:23:39.892Z,96979.19
2022-12-23T21:26:17.318Z,96973.41
2022-12-23T21:28:46.149Z,96984.25
2022-12-23T21:31:13.932Z,96986.56
2022-12-23T21:33:41.507Z,96978.19
2022-12-23T21:36:08.549Z,96992.75
2022-12-23T21:38:36.447Z,97001.09
2022-12-23T21:41:03.873Z,96998.94
2022-12-23T21:43:30.382Z,97008.34
2022-12-23T21:46:05.225Z,96997.94
2022-12-23T21:48:32.304Z,97008.81
2022-12-23T21:51:09.850Z,97004.91
2022-12-23T21:53:36.307Z,96999.88
2022-12-23T21:56:04.609Z,97000.59
2022-12-23T21:58:31.129Z,96997.84
2022-12-23T22:00:57.789Z,97004.97
2022-12-23T22:03:24.408Z,97012.44
2022-12-23T22:05:50.894Z,97015.25
2022-12-23T22:08:17.451Z,97008.53
2022-12-23T22:10:43.988Z,97016.41
2022-12-23T22:13:10.481Z,97017.84
2022-12-23T22:15:40.984Z,97014.44
2022-12-23T22:18:07.489Z,97014.44
2022-12-23T22:20:33.964Z,97023.78
2022-12-23T22:23:00.456Z,97023.91
2022-12-23T22:25:26.941Z,97021.13
2022-12-23T22:27:53.439Z,97026.13
2022-12-23T22:30:19.899Z,97029.75
2022-12-23T22:32:46.437Z,97025.75
2022-12-23T22:35:12.912Z,97023.84
2022-12-23T22:37:39.395Z,97030.34
2022-12-23T22:40:06.983Z,97023.78
2022-12-23T22:42:33.787Z,97025.75
2022-12-23T22:45:00.315Z,97032.53
2022-12-23T22:47:26.920Z,97046.91
2022-12-23T22:49:53.393Z,97042.06
2022-12-23T22:52:19.925Z,97041.81
2022-12-23T22:54:46.390Z,97042.47
2022-12-23T22:57:12.881Z,97047.59
2022-12-23T22:59:39.352Z,97044.94
2022-12-23T23:02:05.982Z,97029.50
2022-12-23T23:04:32.493Z,97053.19
2022-12-23T23:06:58.999Z,97055.47
2022-12-23T23:09:25.448Z,97062.59
2022-12-23T23:11:51.988Z,97076.50
2022-12-23T23:14:18.665Z,97068.25
2022-12-23T23:16:45.300Z,97079.94
2022-12-23T23:19:12.321Z,97079.91
2022-12-23T23:21:38.792Z,97083.63
2022-12-23T23:24:05.642Z,97089.59
2022-12-23T23:26:32.109Z,97086.28
2022-12-23T23:28:58.561Z,97104.13
2022-12-23T23:31:41.768Z,97103.22
2022-12-23T23:34:09.176Z,97106.94
2022-12-23T23:36:35.753Z,97112.34
2022-12-23T23:39:02.329Z,97125.41
2022-12-23T23:41:28.867Z,97119.13
2022-12-23T23:43:55.355Z,97120.78
2022-12-23T23:46:21.917Z,97117.00
2022-12-23T23:48:48.553Z,97128.13
2022-12-23T23:51:15.045Z,97130.94
2022-12-23T23:53:41.526Z,97119.50
2022-12-23T23:56:08.388Z,97145.53
2022-12-23T23:58:35.104Z,97129.72
